sensor_id;sensor_type;location;lat;lon;timestamp;P1;durP1;ratioP1;P2;durP2;ratioP2
13228;SDS011;6680;53.220;10.402;2022-12-16T00:00:41;14.87;;;8.67;;
13228;SDS011;6680;53.220;10.402;2022-12-16T00:03:08;18.85;;;8.80;;
13228;SDS011;6680;53.220;10.402;2022-12-16T00:05:35;18.15;;;9.52;;
13228;SDS011;6680;53.220;10.402;2022-12-16T00:08:02;16.70;;;9.05;;
13228;SDS011;6680;53.220;10.402;2022-12-16T00:10:29;17.63;;;9.13;;
13228;SDS011;6680;53.220;10.402;2022-12-16T00:13:17;16.77;;;9.40;;
13228;SDS011;6680;53.220;10.402;2022-12-16T00:15:44;16.13;;;9.27;;
13228;SDS011;6680;53.220;10.402;2022-12-16T00:18:11;17.02;;;9.75;;
13228;SDS011;6680;53.220;10.402;2022-12-16T00:20:42;22.33;;;10.70;;
13228;SDS011;6680;53.220;10.402;2022-12-16T00:23:09;15.15;;;9.80;;
13228;SDS011;6680;53.220;10.402;2022-12-16T00:25:36;16.88;;;9.27;;
13228;SDS011;6680;53.220;10.402;2022-12-16T00:28:02;14.80;;;8.73;;
13228;SDS011;6680;53.220;10.402;2022-12-16T00:30:31;21.17;;;10.38;;
13228;SDS011;6680;53.220;10.402;2022-12-16T00:32:57;16.85;;;9.70;;
13228;SDS011;6680;53.220;10.402;2022-12-16T00:35:24;19.52;;;9.55;;
13228;SDS011;6680;53.220;10.402;2022-12-16T00:37:51;14.82;;;8.80;;
13228;SDS011;6680;53.220;10.402;2022-12-16T00:40:17;14.32;;;9.50;;
13228;SDS011;6680;53.220;10.402;2022-12-16T00:42:44;15.48;;;9.27;;
13228;SDS011;6680;53.220;10.402;2022-12-16T00:45:11;14.18;;;8.77;;
13228;SDS011;6680;53.220;10.402;2022-12-16T00:47:39;16.60;;;9.55;;
13228;SDS011;6680;53.220;10.402;2022-12-16T00:50:07;16.90;;;8.60;;
13228;SDS011;6680;53.220;10.402;2022-12-16T00:52:35;14.35;;;8.75;;
13228;SDS011;6680;53.220;10.402;2022-12-16T00:55:01;15.35;;;8.90;;
13228;SDS011;6680;53.220;10.402;2022-12-16T00:57:28;21.80;;;10.27;;
13228;SDS011;6680;53.220;10.402;2022-12-16T00:59:55;17.10;;;8.32;;
13228;SDS011;6680;53.220;10.402;2022-12-16T01:02:21;13.05;;;7.63;;
13228;SDS011;6680;53.220;10.402;2022-12-16T01:04:50;16.63;;;10.65;;
13228;SDS011;6680;53.220;10.402;2022-12-16T01:07:17;12.85;;;8.48;;
13228;SDS011;6680;53.220;10.402;2022-12-16T01:09:44;19.90;;;9.30;;
13228;SDS011;6680;53.220;10.402;2022-12-16T01:12:11;17.38;;;10.02;;
13228;SDS011;6680;53.220;10.402;2022-12-16T01:14:37;15.13;;;8.32;;
13228;SDS011;6680;53.220;10.402;2022-12-16T01:17:04;16.08;;;8.73;;
13228;SDS011;6680;53.220;10.402;2022-12-16T01:19:31;14.45;;;7.85;;
13228;SDS011;6680;53.220;10.402;2022-12-16T01:21:59;20.13;;;9.30;;
13228;SDS011;6680;53.220;10.402;2022-12-16T01:24:26;13.48;;;8.07;;
13228;SDS011;6680;53.220;10.402;2022-12-16T01:26:53;16.00;;;9.50;;
13228;SDS011;6680;53.220;10.402;2022-12-16T01:29:20;14.82;;;9.30;;
13228;SDS011;6680;53.220;10.402;2022-12-16T01:31:46;13.77;;;8.25;;
13228;SDS011;6680;53.220;10.402;2022-12-16T01:34:13;15.98;;;7.65;;
13228;SDS011;6680;53.220;10.402;2022-12-16T01:36:41;14.63;;;8.70;;
13228;SDS011;6680;53.220;10.402;2022-12-16T01:39:09;11.55;;;8.00;;
13228;SDS011;6680;53.220;10.402;2022-12-16T01:41:36;16.90;;;8.45;;
13228;SDS011;6680;53.220;10.402;2022-12-16T01:44:11;13.70;;;9.07;;
13228;SDS011;6680;53.220;10.402;2022-12-16T01:46:39;14.02;;;8.82;;
13228;SDS011;6680;53.220;10.402;2022-12-16T01:49:07;18.15;;;9.60;;
13228;SDS011;6680;53.220;10.402;2022-12-16T01:51:42;16.65;;;8.98;;
13228;SDS011;6680;53.220;10.402;2022-12-16T01:54:12;17.17;;;8.32;;
13228;SDS011;6680;53.220;10.402;2022-12-16T01:56:44;21.42;;;10.10;;
13228;SDS011;6680;53.220;10.402;2022-12-16T01:59:14;27.20;;;12.13;;
13228;SDS011;6680;53.220;10.402;2022-12-16T02:01:44;13.43;;;8.48;;
13228;SDS011;6680;53.220;10.402;2022-12-16T02:04:11;17.00;;;8.82;;
13228;SDS011;6680;53.220;10.402;2022-12-16T02:06:38;14.70;;;8.57;;
13228;SDS011;6680;53.220;10.402;2022-12-16T02:09:05;21.60;;;11.90;;
13228;SDS011;6680;53.220;10.402;2022-12-16T02:11:44;18.17;;;10.52;;
13228;SDS011;6680;53.220;10.402;2022-12-16T02:14:33;17.33;;;10.82;;
13228;SDS011;6680;53.220;10.402;2022-12-16T02:17:11;17.42;;;9.43;;
13228;SDS011;6680;53.220;10.402;2022-12-16T02:22:59;17.10;;;8.63;;
13228;SDS011;6680;53.220;10.402;2022-12-16T02:25:45;13.88;;;9.45;;
13228;SDS011;6680;53.220;10.402;2022-12-16T02:28:27;14.77;;;10.45;;
13228;SDS011;6680;53.220;10.402;2022-12-16T02:31:20;21.43;;;8.97;;
13228;SDS011;6680;53.220;10.402;2022-12-16T02:33:53;15.40;;;8.90;;
13228;SDS011;6680;53.220;10.402;2022-12-16T02:36:31;14.77;;;9.27;;
13228;SDS011;6680;53.220;10.402;2022-12-16T02:39:07;15.35;;;9.55;;
13228;SDS011;6680;53.220;10.402;2022-12-16T02:41:41;18.40;;;10.13;;
13228;SDS011;6680;53.220;10.402;2022-12-16T02:44:13;13.18;;;8.73;;
13228;SDS011;6680;53.220;10.402;2022-12-16T02:46:50;17.67;;;10.17;;
13228;SDS011;6680;53.220;10.402;2022-12-16T02:52:21;13.80;;;8.50;;
13228;SDS011;6680;53.220;10.402;2022-12-16T02:54:50;17.40;;;9.07;;
13228;SDS011;6680;53.220;10.402;2022-12-16T02:57:29;18.03;;;8.93;;
13228;SDS011;6680;53.220;10.402;2022-12-16T03:00:07;18.67;;;9.43;;
13228;SDS011;6680;53.220;10.402;2022-12-16T03:02:39;17.50;;;9.77;;
13228;SDS011;6680;53.220;10.402;2022-12-16T03:05:13;14.60;;;9.80;;
13228;SDS011;6680;53.220;10.402;2022-12-16T03:07:43;20.47;;;9.80;;
13228;SDS011;6680;53.220;10.402;2022-12-16T03:10:13;15.93;;;9.50;;
13228;SDS011;6680;53.220;10.402;2022-12-16T03:12:42;18.23;;;10.17;;
13228;SDS011;6680;53.220;10.402;2022-12-16T03:15:10;18.00;;;10.23;;
13228;SDS011;6680;53.220;10.402;2022-12-16T03:17:42;17.00;;;9.27;;
13228;SDS011;6680;53.220;10.402;2022-12-16T03:20:14;14.37;;;9.43;;
13228;SDS011;6680;53.220;10.402;2022-12-16T03:22:45;16.50;;;9.10;;
13228;SDS011;6680;53.220;10.402;2022-12-16T03:25:15;22.37;;;10.10;;
13228;SDS011;6680;53.220;10.402;2022-12-16T03:27:44;21.30;;;9.07;;
13228;SDS011;6680;53.220;10.402;2022-12-16T03:30:15;20.73;;;11.43;;
13228;SDS011;6680;53.220;10.402;2022-12-16T03:32:46;17.93;;;9.70;;
13228;SDS011;6680;53.220;10.402;2022-12-16T03:35:18;17.00;;;9.80;;
13228;SDS011;6680;53.220;10.402;2022-12-16T03:37:48;16.03;;;9.00;;
13228;SDS011;6680;53.220;10.402;2022-12-16T03:40:19;19.93;;;10.77;;
13228;SDS011;6680;53.220;10.402;2022-12-16T03:42:48;19.23;;;10.00;;
13228;SDS011;6680;53.220;10.402;2022-12-16T03:45:18;17.57;;;9.27;;
13228;SDS011;6680;53.220;10.402;2022-12-16T03:47:50;16.50;;;9.10;;
13228;SDS011;6680;53.220;10.402;2022-12-16T03:50:18;17.60;;;9.23;;
13228;SDS011;6680;53.220;10.402;2022-12-16T03:52:48;18.97;;;9.67;;
13228;SDS011;6680;53.220;10.402;2022-12-16T03:55:15;13.37;;;8.57;;
13228;SDS011;6680;53.220;10.402;2022-12-16T03:57:42;17.77;;;9.83;;
13228;SDS011;6680;53.220;10.402;2022-12-16T04:00:09;15.43;;;8.87;;
13228;SDS011;6680;53.220;10.402;2022-12-16T04:02:37;15.07;;;9.50;;
13228;SDS011;6680;53.220;10.402;2022-12-16T04:05:05;17.53;;;9.63;;
13228;SDS011;6680;53.220;10.402;2022-12-16T04:07:32;14.60;;;9.47;;
13228;SDS011;6680;53.220;10.402;2022-12-16T04:09:59;24.60;;;10.57;;
13228;SDS011;6680;53.220;10.402;2022-12-16T04:12:26;17.07;;;10.70;;
13228;SDS011;6680;53.220;10.402;2022-12-16T04:15:10;15.90;;;10.00;;
13228;SDS011;6680;53.220;10.402;2022-12-16T04:17:55;20.30;;;10.27;;
13228;SDS011;6680;53.220;10.402;2022-12-16T04:20:43;16.17;;;9.13;;
13228;SDS011;6680;53.220;10.402;2022-12-16T04:23:30;14.83;;;9.90;;
13228;SDS011;6680;53.220;10.402;2022-12-16T04:26:15;15.43;;;9.97;;
13228;SDS011;6680;53.220;10.402;2022-12-16T04:28:42;14.30;;;9.40;;
13228;SDS011;6680;53.220;10.402;2022-12-16T04:31:09;18.00;;;10.03;;
13228;SDS011;6680;53.220;10.402;2022-12-16T04:33:36;17.93;;;10.83;;
13228;SDS011;6680;53.220;10.402;2022-12-16T04:36:22;15.47;;;8.87;;
13228;SDS011;6680;53.220;10.402;2022-12-16T04:39:07;20.53;;;9.83;;
13228;SDS011;6680;53.220;10.402;2022-12-16T04:41:51;17.47;;;9.77;;
13228;SDS011;6680;53.220;10.402;2022-12-16T04:44:35;13.67;;;9.50;;
13228;SDS011;6680;53.220;10.402;2022-12-16T04:47:19;19.07;;;9.87;;
13228;SDS011;6680;53.220;10.402;2022-12-16T04:50:04;20.63;;;10.17;;
13228;SDS011;6680;53.220;10.402;2022-12-16T04:52:50;16.07;;;9.53;;
13228;SDS011;6680;53.220;10.402;2022-12-16T04:55:39;19.73;;;9.73;;
13228;SDS011;6680;53.220;10.402;2022-12-16T04:58:24;17.10;;;10.47;;
13228;SDS011;6680;53.220;10.402;2022-12-16T05:01:08;16.37;;;10.13;;
13228;SDS011;6680;53.220;10.402;2022-12-16T05:03:52;17.30;;;9.50;;
13228;SDS011;6680;53.220;10.402;2022-12-16T05:06:36;15.53;;;8.63;;
13228;SDS011;6680;53.220;10.402;2022-12-16T05:09:22;13.23;;;9.20;;
13228;SDS011;6680;53.220;10.402;2022-12-16T05:12:06;16.73;;;8.87;;
13228;SDS011;6680;53.220;10.402;2022-12-16T05:14:50;15.73;;;10.47;;
13228;SDS011;6680;53.220;10.402;2022-12-16T05:17:34;16.37;;;9.73;;
13228;SDS011;6680;53.220;10.402;2022-12-16T05:20:18;16.53;;;9.83;;
13228;SDS011;6680;53.220;10.402;2022-12-16T05:23:02;14.77;;;8.73;;
13228;SDS011;6680;53.220;10.402;2022-12-16T05:25:48;19.67;;;9.33;;
13228;SDS011;6680;53.220;10.402;2022-12-16T05:28:32;13.20;;;8.50;;
13228;SDS011;6680;53.220;10.402;2022-12-16T05:31:16;12.43;;;9.00;;
13228;SDS011;6680;53.220;10.402;2022-12-16T05:34:00;17.53;;;10.70;;
13228;SDS011;6680;53.220;10.402;2022-12-16T05:36:41;14.20;;;9.27;;
13228;SDS011;6680;53.220;10.402;2022-12-16T05:39:27;20.53;;;11.53;;
13228;SDS011;6680;53.220;10.402;2022-12-16T05:42:13;16.70;;;9.90;;
13228;SDS011;6680;53.220;10.402;2022-12-16T05:44:57;15.27;;;9.10;;
13228;SDS011;6680;53.220;10.402;2022-12-16T05:47:41;17.43;;;9.73;;
13228;SDS011;6680;53.220;10.402;2022-12-16T05:50:25;12.47;;;8.87;;
13228;SDS011;6680;53.220;10.402;2022-12-16T05:53:09;14.00;;;9.97;;
13228;SDS011;6680;53.220;10.402;2022-12-16T05:55:54;17.10;;;9.87;;
13228;SDS011;6680;53.220;10.402;2022-12-16T05:58:40;15.17;;;8.43;;
13228;SDS011;6680;53.220;10.402;2022-12-16T06:01:24;17.37;;;9.87;;
13228;SDS011;6680;53.220;10.402;2022-12-16T06:04:08;15.63;;;8.65;;
13228;SDS011;6680;53.220;10.402;2022-12-16T06:06:52;15.50;;;9.13;;
13228;SDS011;6680;53.220;10.402;2022-12-16T06:09:48;16.63;;;9.53;;
13228;SDS011;6680;53.220;10.402;2022-12-16T06:12:32;21.23;;;9.97;;
13228;SDS011;6680;53.220;10.402;2022-12-16T06:15:18;14.97;;;8.60;;
13228;SDS011;6680;53.220;10.402;2022-12-16T06:18:02;17.48;;;8.88;;
13228;SDS011;6680;53.220;10.402;2022-12-16T06:20:47;15.63;;;8.97;;
13228;SDS011;6680;53.220;10.402;2022-12-16T06:23:31;15.53;;;8.47;;
13228;SDS011;6680;53.220;10.402;2022-12-16T06:26:15;19.23;;;10.00;;
13228;SDS011;6680;53.220;10.402;2022-12-16T06:28:59;18.87;;;9.93;;
13228;SDS011;6680;53.220;10.402;2022-12-16T06:31:45;20.98;;;10.75;;
13228;SDS011;6680;53.220;10.402;2022-12-16T06:34:29;14.63;;;8.97;;
13228;SDS011;6680;53.220;10.402;2022-12-16T06:37:13;14.07;;;9.77;;
13228;SDS011;6680;53.220;10.402;2022-12-16T06:39:57;14.93;;;9.57;;
13228;SDS011;6680;53.220;10.402;2022-12-16T06:42:41;12.40;;;8.18;;
13228;SDS011;6680;53.220;10.402;2022-12-16T06:45:25;20.13;;;9.77;;
13228;SDS011;6680;53.220;10.402;2022-12-16T06:48:11;15.77;;;9.43;;
13228;SDS011;6680;53.220;10.402;2022-12-16T06:50:52;16.07;;;9.27;;
13228;SDS011;6680;53.220;10.402;2022-12-16T06:53:36;17.13;;;9.30;;
13228;SDS011;6680;53.220;10.402;2022-12-16T06:56:21;15.50;;;9.07;;
13228;SDS011;6680;53.220;10.402;2022-12-16T06:59:05;15.48;;;9.73;;
13228;SDS011;6680;53.220;10.402;2022-12-16T07:01:49;15.43;;;9.15;;
13228;SDS011;6680;53.220;10.402;2022-12-16T07:04:34;17.87;;;9.87;;
13228;SDS011;6680;53.220;10.402;2022-12-16T07:07:18;15.38;;;8.13;;
13228;SDS011;6680;53.220;10.402;2022-12-16T07:10:03;18.23;;;10.05;;
13228;SDS011;6680;53.220;10.402;2022-12-16T07:12:47;18.85;;;10.07;;
13228;SDS011;6680;53.220;10.402;2022-12-16T07:15:31;18.98;;;11.52;;
13228;SDS011;6680;53.220;10.402;2022-12-16T07:18:16;16.55;;;9.73;;
13228;SDS011;6680;53.220;10.402;2022-12-16T07:21:01;14.45;;;8.75;;
13228;SDS011;6680;53.220;10.402;2022-12-16T07:23:45;16.58;;;9.82;;
13228;SDS011;6680;53.220;10.402;2022-12-16T07:26:29;15.52;;;8.77;;
13228;SDS011;6680;53.220;10.402;2022-12-16T07:29:13;16.77;;;10.68;;
13228;SDS011;6680;53.220;10.402;2022-12-16T07:31:57;18.23;;;9.45;;
13228;SDS011;6680;53.220;10.402;2022-12-16T07:34:41;17.25;;;10.40;;
13228;SDS011;6680;53.220;10.402;2022-12-16T07:37:26;22.73;;;10.45;;
13228;SDS011;6680;53.220;10.402;2022-12-16T07:40:10;15.60;;;9.15;;
13228;SDS011;6680;53.220;10.402;2022-12-16T07:42:54;17.00;;;9.07;;
13228;SDS011;6680;53.220;10.402;2022-12-16T07:45:38;17.88;;;8.95;;
13228;SDS011;6680;53.220;10.402;2022-12-16T07:48:23;16.17;;;9.07;;
13228;SDS011;6680;53.220;10.402;2022-12-16T07:51:07;13.43;;;8.50;;
13228;SDS011;6680;53.220;10.402;2022-12-16T07:53:52;21.27;;;8.80;;
13228;SDS011;6680;53.220;10.402;2022-12-16T07:56:36;16.35;;;9.38;;
13228;SDS011;6680;53.220;10.402;2022-12-16T07:59:20;19.13;;;10.80;;
13228;SDS011;6680;53.220;10.402;2022-12-16T08:02:04;15.30;;;9.73;;
13228;SDS011;6680;53.220;10.402;2022-12-16T08:04:50;19.10;;;8.70;;
13228;SDS011;6680;53.220;10.402;2022-12-16T08:07:36;18.90;;;10.05;;
13228;SDS011;6680;53.220;10.402;2022-12-16T08:10:23;18.80;;;9.90;;
13228;SDS011;6680;53.220;10.402;2022-12-16T08:13:07;13.68;;;8.93;;
13228;SDS011;6680;53.220;10.402;2022-12-16T08:15:51;16.98;;;9.23;;
13228;SDS011;6680;53.220;10.402;2022-12-16T08:18:36;16.85;;;10.00;;
13228;SDS011;6680;53.220;10.402;2022-12-16T08:21:19;21.58;;;11.45;;
13228;SDS011;6680;53.220;10.402;2022-12-16T08:24:04;18.42;;;10.82;;
13228;SDS011;6680;53.220;10.402;2022-12-16T08:26:50;17.97;;;10.30;;
13228;SDS011;6680;53.220;10.402;2022-12-16T08:29:34;15.52;;;9.80;;
13228;SDS011;6680;53.220;10.402;2022-12-16T08:32:18;17.65;;;9.77;;
13228;SDS011;6680;53.220;10.402;2022-12-16T08:35:02;16.77;;;11.20;;
13228;SDS011;6680;53.220;10.402;2022-12-16T08:37:47;19.43;;;9.47;;
13228;SDS011;6680;53.220;10.402;2022-12-16T08:40:32;19.73;;;10.73;;
13228;SDS011;6680;53.220;10.402;2022-12-16T08:43:17;15.40;;;9.40;;
13228;SDS011;6680;53.220;10.402;2022-12-16T08:46:01;17.30;;;9.97;;
13228;SDS011;6680;53.220;10.402;2022-12-16T08:48:45;16.47;;;10.83;;
13228;SDS011;6680;53.220;10.402;2022-12-16T08:51:28;19.80;;;11.77;;
13228;SDS011;6680;53.220;10.402;2022-12-16T08:54:13;23.98;;;11.18;;
13228;SDS011;6680;53.220;10.402;2022-12-16T08:56:58;18.90;;;9.87;;
13228;SDS011;6680;53.220;10.402;2022-12-16T08:59:43;24.87;;;11.43;;
13228;SDS011;6680;53.220;10.402;2022-12-16T09:02:27;19.50;;;11.07;;
13228;SDS011;6680;53.220;10.402;2022-12-16T09:05:11;24.83;;;12.73;;
13228;SDS011;6680;53.220;10.402;2022-12-16T09:07:57;17.67;;;11.37;;
13228;SDS011;6680;53.220;10.402;2022-12-16T09:10:41;17.97;;;11.10;;
13228;SDS011;6680;53.220;10.402;2022-12-16T09:13:26;16.83;;;11.13;;
13228;SDS011;6680;53.220;10.402;2022-12-16T09:16:11;18.60;;;10.77;;
13228;SDS011;6680;53.220;10.402;2022-12-16T09:18:55;16.33;;;9.70;;
13228;SDS011;6680;53.220;10.402;2022-12-16T09:21:39;18.07;;;10.97;;
13228;SDS011;6680;53.220;10.402;2022-12-16T09:24:24;23.03;;;11.87;;
13228;SDS011;6680;53.220;10.402;2022-12-16T09:27:08;23.23;;;13.33;;
13228;SDS011;6680;53.220;10.402;2022-12-16T09:29:52;18.20;;;11.40;;
13228;SDS011;6680;53.220;10.402;2022-12-16T09:32:40;19.53;;;10.80;;
13228;SDS011;6680;53.220;10.402;2022-12-16T09:35:25;23.50;;;13.93;;
13228;SDS011;6680;53.220;10.402;2022-12-16T09:38:09;34.90;;;18.43;;
13228;SDS011;6680;53.220;10.402;2022-12-16T09:40:53;25.07;;;14.00;;
13228;SDS011;6680;53.220;10.402;2022-12-16T09:46:44;21.63;;;12.40;;
13228;SDS011;6680;53.220;10.402;2022-12-16T09:49:42;23.57;;;13.03;;
13228;SDS011;6680;53.220;10.402;2022-12-16T09:52:31;22.03;;;12.77;;
13228;SDS011;6680;53.220;10.402;2022-12-16T09:55:23;27.83;;;13.20;;
13228;SDS011;6680;53.220;10.402;2022-12-16T09:58:11;18.90;;;12.53;;
13228;SDS011;6680;53.220;10.402;2022-12-16T10:00:56;20.80;;;12.73;;
13228;SDS011;6680;53.220;10.402;2022-12-16T10:03:41;21.87;;;12.03;;
13228;SDS011;6680;53.220;10.402;2022-12-16T10:06:30;27.77;;;14.27;;
13228;SDS011;6680;53.220;10.402;2022-12-16T10:09:21;23.13;;;12.57;;
13228;SDS011;6680;53.220;10.402;2022-12-16T10:12:14;23.77;;;13.07;;
13228;SDS011;6680;53.220;10.402;2022-12-16T10:15:09;25.67;;;14.50;;
13228;SDS011;6680;53.220;10.402;2022-12-16T10:18:04;21.17;;;13.20;;
13228;SDS011;6680;53.220;10.402;2022-12-16T10:20:59;21.83;;;13.23;;
13228;SDS011;6680;53.220;10.402;2022-12-16T10:23:48;20.73;;;13.27;;
13228;SDS011;6680;53.220;10.402;2022-12-16T10:26:42;23.90;;;15.57;;
13228;SDS011;6680;53.220;10.402;2022-12-16T10:29:36;23.37;;;13.93;;
13228;SDS011;6680;53.220;10.402;2022-12-16T10:32:26;20.70;;;12.57;;
13228;SDS011;6680;53.220;10.402;2022-12-16T10:35:17;22.87;;;13.43;;
13228;SDS011;6680;53.220;10.402;2022-12-16T10:38:05;22.73;;;13.47;;
13228;SDS011;6680;53.220;10.402;2022-12-16T10:40:54;20.73;;;11.97;;
13228;SDS011;6680;53.220;10.402;2022-12-16T10:43:50;25.90;;;13.47;;
13228;SDS011;6680;53.220;10.402;2022-12-16T10:46:37;18.90;;;12.70;;
13228;SDS011;6680;53.220;10.402;2022-12-16T10:49:21;18.33;;;10.73;;
13228;SDS011;6680;53.220;10.402;2022-12-16T10:52:05;19.47;;;10.47;;
13228;SDS011;6680;53.220;10.402;2022-12-16T10:54:53;18.07;;;10.63;;
13228;SDS011;6680;53.220;10.402;2022-12-16T10:57:44;17.60;;;12.10;;
13228;SDS011;6680;53.220;10.402;2022-12-16T11:00:43;20.33;;;12.07;;
13228;SDS011;6680;53.220;10.402;2022-12-16T11:03:29;21.63;;;12.47;;
13228;SDS011;6680;53.220;10.402;2022-12-16T11:06:16;24.73;;;13.07;;
13228;SDS011;6680;53.220;10.402;2022-12-16T11:09:13;22.23;;;12.00;;
13228;SDS011;6680;53.220;10.402;2022-12-16T11:15:21;20.10;;;11.93;;
13228;SDS011;6680;53.220;10.402;2022-12-16T11:18:08;23.03;;;12.17;;
13228;SDS011;6680;53.220;10.402;2022-12-16T11:21:11;18.90;;;11.13;;
13228;SDS011;6680;53.220;10.402;2022-12-16T11:24:03;22.73;;;12.70;;
13228;SDS011;6680;53.220;10.402;2022-12-16T11:26:52;21.60;;;12.63;;
13228;SDS011;6680;53.220;10.402;2022-12-16T11:29:47;17.90;;;12.23;;
13228;SDS011;6680;53.220;10.402;2022-12-16T11:32:34;18.33;;;10.97;;
13228;SDS011;6680;53.220;10.402;2022-12-16T11:35:21;19.80;;;11.20;;
13228;SDS011;6680;53.220;10.402;2022-12-16T11:38:10;21.57;;;12.57;;
13228;SDS011;6680;53.220;10.402;2022-12-16T11:41:01;23.87;;;13.03;;
13228;SDS011;6680;53.220;10.402;2022-12-16T11:43:46;21.80;;;11.63;;
13228;SDS011;6680;53.220;10.402;2022-12-16T11:46:33;18.60;;;11.73;;
13228;SDS011;6680;53.220;10.402;2022-12-16T11:49:19;22.83;;;11.37;;
13228;SDS011;6680;53.220;10.402;2022-12-16T11:52:09;17.07;;;11.33;;
13228;SDS011;6680;53.220;10.402;2022-12-16T11:54:57;26.00;;;11.83;;
13228;SDS011;6680;53.220;10.402;2022-12-16T11:57:49;17.73;;;11.80;;
13228;SDS011;6680;53.220;10.402;2022-12-16T12:00:48;21.83;;;12.37;;
13228;SDS011;6680;53.220;10.402;2022-12-16T12:03:38;19.00;;;11.63;;
13228;SDS011;6680;53.220;10.402;2022-12-16T12:06:28;21.43;;;12.07;;
13228;SDS011;6680;53.220;10.402;2022-12-16T12:09:19;18.80;;;11.63;;
13228;SDS011;6680;53.220;10.402;2022-12-16T12:12:08;21.63;;;12.50;;
13228;SDS011;6680;53.220;10.402;2022-12-16T12:14:59;26.77;;;12.00;;
13228;SDS011;6680;53.220;10.402;2022-12-16T12:17:57;19.57;;;11.43;;
13228;SDS011;6680;53.220;10.402;2022-12-16T12:20:49;21.30;;;12.57;;
13228;SDS011;6680;53.220;10.402;2022-12-16T12:23:42;18.43;;;11.50;;
13228;SDS011;6680;53.220;10.402;2022-12-16T12:26:34;19.37;;;10.77;;
13228;SDS011;6680;53.220;10.402;2022-12-16T12:29:24;30.70;;;17.53;;
13228;SDS011;6680;53.220;10.402;2022-12-16T12:32:16;77.07;;;27.33;;
13228;SDS011;6680;53.220;10.402;2022-12-16T12:35:07;29.57;;;16.27;;
13228;SDS011;6680;53.220;10.402;2022-12-16T12:38:05;31.47;;;16.30;;
13228;SDS011;6680;53.220;10.402;2022-12-16T12:40:58;87.07;;;31.53;;
13228;SDS011;6680;53.220;10.402;2022-12-16T12:43:49;106.30;;;30.50;;
13228;SDS011;6680;53.220;10.402;2022-12-16T12:46:38;58.73;;;22.97;;
13228;SDS011;6680;53.220;10.402;2022-12-16T12:49:28;95.87;;;28.30;;
13228;SDS011;6680;53.220;10.402;2022-12-16T12:52:21;127.20;;;32.57;;
13228;SDS011;6680;53.220;10.402;2022-12-16T12:55:19;23.90;;;14.77;;
13228;SDS011;6680;53.220;10.402;2022-12-16T12:58:12;103.60;;;32.37;;
13228;SDS011;6680;53.220;10.402;2022-12-16T13:00:58;88.33;;;33.13;;
13228;SDS011;6680;53.220;10.402;2022-12-16T13:03:45;138.40;;;42.80;;
13228;SDS011;6680;53.220;10.402;2022-12-16T13:06:33;81.23;;;27.63;;
13228;SDS011;6680;53.220;10.402;2022-12-16T13:09:22;96.83;;;29.20;;
13228;SDS011;6680;53.220;10.402;2022-12-16T13:12:21;95.73;;;34.90;;
13228;SDS011;6680;53.220;10.402;2022-12-16T13:15:18;169.37;;;43.87;;
13228;SDS011;6680;53.220;10.402;2022-12-16T13:18:21;187.67;;;41.40;;
13228;SDS011;6680;53.220;10.402;2022-12-16T13:24:44;30.93;;;17.20;;
13228;SDS011;6680;53.220;10.402;2022-12-16T13:27:48;32.73;;;18.10;;
13228;SDS011;6680;53.220;10.402;2022-12-16T13:30:38;55.23;;;22.57;;
13228;SDS011;6680;53.220;10.402;2022-12-16T13:33:37;166.43;;;39.80;;
13228;SDS011;6680;53.220;10.402;2022-12-16T13:36:23;39.43;;;20.20;;
13228;SDS011;6680;53.220;10.402;2022-12-16T13:39:19;32.20;;;17.60;;
13228;SDS011;6680;53.220;10.402;2022-12-16T13:42:29;114.67;;;33.50;;
13228;SDS011;6680;53.220;10.402;2022-12-16T13:45:27;165.73;;;38.03;;
13228;SDS011;6680;53.220;10.402;2022-12-16T13:48:33;95.13;;;31.80;;
13228;SDS011;6680;53.220;10.402;2022-12-16T13:54:42;29.33;;;17.20;;
13228;SDS011;6680;53.220;10.402;2022-12-16T13:57:34;83.60;;;28.73;;
13228;SDS011;6680;53.220;10.402;2022-12-16T14:00:22;49.13;;;23.20;;
13228;SDS011;6680;53.220;10.402;2022-12-16T14:03:08;49.70;;;22.60;;
13228;SDS011;6680;53.220;10.402;2022-12-16T14:06:02;163.97;;;44.47;;
13228;SDS011;6680;53.220;10.402;2022-12-16T14:08:48;31.00;;;18.50;;
13228;SDS011;6680;53.220;10.402;2022-12-16T14:11:35;46.33;;;25.03;;
13228;SDS011;6680;53.220;10.402;2022-12-16T14:14:30;160.77;;;51.90;;
13228;SDS011;6680;53.220;10.402;2022-12-16T14:17:19;38.97;;;21.07;;
13228;SDS011;6680;53.220;10.402;2022-12-16T14:20:11;35.53;;;20.27;;
13228;SDS011;6680;53.220;10.402;2022-12-16T14:23:05;33.10;;;19.33;;
13228;SDS011;6680;53.220;10.402;2022-12-16T14:26:04;30.67;;;20.07;;
13228;SDS011;6680;53.220;10.402;2022-12-16T14:28:54;33.03;;;18.33;;
13228;SDS011;6680;53.220;10.402;2022-12-16T14:31:39;34.70;;;18.30;;
13228;SDS011;6680;53.220;10.402;2022-12-16T14:34:26;33.13;;;16.10;;
13228;SDS011;6680;53.220;10.402;2022-12-16T14:37:12;29.63;;;17.53;;
13228;SDS011;6680;53.220;10.402;2022-12-16T14:39:58;31.13;;;16.00;;
13228;SDS011;6680;53.220;10.402;2022-12-16T14:42:42;30.47;;;16.20;;
13228;SDS011;6680;53.220;10.402;2022-12-16T14:45:28;27.97;;;15.50;;
13228;SDS011;6680;53.220;10.402;2022-12-16T14:48:19;30.90;;;16.63;;
13228;SDS011;6680;53.220;10.402;2022-12-16T14:54:16;24.97;;;14.23;;
13228;SDS011;6680;53.220;10.402;2022-12-16T14:57:07;29.77;;;16.63;;
13228;SDS011;6680;53.220;10.402;2022-12-16T15:00:03;28.97;;;14.97;;
13228;SDS011;6680;53.220;10.402;2022-12-16T15:02:54;31.80;;;16.50;;
13228;SDS011;6680;53.220;10.402;2022-12-16T15:05:41;23.07;;;14.47;;
13228;SDS011;6680;53.220;10.402;2022-12-16T15:08:22;29.20;;;16.70;;
13228;SDS011;6680;53.220;10.402;2022-12-16T15:11:23;35.00;;;17.10;;
13228;SDS011;6680;53.220;10.402;2022-12-16T15:14:10;26.80;;;15.93;;
13228;SDS011;6680;53.220;10.402;2022-12-16T15:16:57;33.03;;;17.43;;
13228;SDS011;6680;53.220;10.402;2022-12-16T15:19:42;22.67;;;13.87;;
13228;SDS011;6680;53.220;10.402;2022-12-16T15:22:30;23.47;;;14.70;;
13228;SDS011;6680;53.220;10.402;2022-12-16T15:25:18;22.63;;;16.07;;
13228;SDS011;6680;53.220;10.402;2022-12-16T15:28:04;33.17;;;16.10;;
13228;SDS011;6680;53.220;10.402;2022-12-16T15:31:12;27.83;;;15.73;;
13228;SDS011;6680;53.220;10.402;2022-12-16T15:37:00;27.07;;;15.77;;
13228;SDS011;6680;53.220;10.402;2022-12-16T15:39:58;27.10;;;14.80;;
13228;SDS011;6680;53.220;10.402;2022-12-16T15:42:46;25.30;;;14.37;;
13228;SDS011;6680;53.220;10.402;2022-12-16T15:45:33;28.70;;;16.13;;
13228;SDS011;6680;53.220;10.402;2022-12-16T15:48:19;25.67;;;16.17;;
13228;SDS011;6680;53.220;10.402;2022-12-16T15:51:22;29.63;;;16.77;;
13228;SDS011;6680;53.220;10.402;2022-12-16T15:54:12;29.10;;;17.93;;
13228;SDS011;6680;53.220;10.402;2022-12-16T15:56:59;29.97;;;16.63;;
13228;SDS011;6680;53.220;10.402;2022-12-16T15:59:56;27.00;;;15.73;;
13228;SDS011;6680;53.220;10.402;2022-12-16T16:02:45;30.13;;;16.70;;
13228;SDS011;6680;53.220;10.402;2022-12-16T16:05:32;28.20;;;16.67;;
13228;SDS011;6680;53.220;10.402;2022-12-16T16:08:18;30.97;;;17.67;;
13228;SDS011;6680;53.220;10.402;2022-12-16T16:11:03;32.10;;;17.40;;
13228;SDS011;6680;53.220;10.402;2022-12-16T16:13:44;30.20;;;15.80;;
13228;SDS011;6680;53.220;10.402;2022-12-16T16:16:28;26.80;;;16.43;;
13228;SDS011;6680;53.220;10.402;2022-12-16T16:19:15;34.17;;;17.93;;
13228;SDS011;6680;53.220;10.402;2022-12-16T16:22:07;38.03;;;20.87;;